createdAt,value
2023-06-04T00:00:46.425Z,14.85
2023-06-04T00:01:46.458Z,14.86
2023-06-04T00:02:46.598Z,14.91
2023-06-04T00:03:46.649Z,14.86
2023-06-04T00:04:46.755Z,14.86
2023-06-04T00:05:46.598Z,14.97
2023-06-04T00:06:46.626Z,14.94
2023-06-04T00:07:46.660Z,14.97
2023-06-04T00:08:46.689Z,14.91
2023-06-04T00:09:46.718Z,14.94
2023-06-04T00:10:46.755Z,14.83
2023-06-04T00:11:46.863Z,14.78
2023-06-04T00:12:46.845Z,14.69
2023-06-04T00:13:46.846Z,14.72
2023-06-04T00:14:46.894Z,14.71
2023-06-04T00:15:46.939Z,14.63
2023-06-04T00:16:47.044Z,14.59
2023-06-04T00:17:47.016Z,14.54
2023-06-04T00:18:47.024Z,14.56
2023-06-04T00:19:47.049Z,14.57
2023-06-04T00:20:47.077Z,14.60
2023-06-04T00:21:47.108Z,14.54
2023-06-04T00:22:47.153Z,14.57
2023-06-04T00:23:47.251Z,14.46
2023-06-04T00:24:47.207Z,14.45
2023-06-04T00:25:47.285Z,14.46
2023-06-04T00:26:47.321Z,14.46
2023-06-04T00:27:47.310Z,14.46
2023-06-04T00:28:47.385Z,14.31
2023-06-04T00:29:47.386Z,14.27
2023-06-04T00:30:47.417Z,14.35
2023-06-04T00:31:47.552Z,14.34
2023-06-04T00:32:47.535Z,14.30
2023-06-04T00:33:47.501Z,14.31
2023-06-04T00:34:47.534Z,14.35
2023-06-04T00:35:47.578Z,14.36
2023-06-04T00:36:47.613Z,14.39
2023-06-04T00:37:47.631Z,14.24
2023-06-04T00:38:47.673Z,14.23
2023-06-04T00:39:47.707Z,14.23
2023-06-04T00:40:47.732Z,14.27
2023-06-04T00:41:47.761Z,14.24
2023-06-04T00:42:47.804Z,14.19
2023-06-04T00:43:47.834Z,14.19
2023-06-04T00:44:47.864Z,14.23
2023-06-04T00:45:47.907Z,14.19
2023-06-04T00:46:47.934Z,14.27
2023-06-04T00:47:48.032Z,14.16
2023-06-04T00:48:47.993Z,14.17
2023-06-04T00:49:48.025Z,14.11
2023-06-04T00:50:48.064Z,14.08
2023-06-04T00:51:48.096Z,14.04
2023-06-04T00:52:48.145Z,14.05
2023-06-04T00:53:48.152Z,13.91
2023-06-04T00:54:48.194Z,14.04
2023-06-04T00:55:48.219Z,13.91
2023-06-04T00:56:48.281Z,13.98
2023-06-04T00:57:48.287Z,13.98
2023-06-04T00:58:48.364Z,13.94
2023-06-04T00:59:48.361Z,13.98
2023-06-04T01:00:48.461Z,13.93
2023-06-04T01:01:48.410Z,13.79
2023-06-04T01:02:48.476Z,13.84
2023-06-04T01:03:48.553Z,13.87
2023-06-04T01:04:48.518Z,13.86
2023-06-04T01:05:48.543Z,13.84
2023-06-04T01:06:48.576Z,13.80
2023-06-04T01:07:48.609Z,13.81
2023-06-04T01:08:48.640Z,13.81
2023-06-04T01:09:48.685Z,13.83
2023-06-04T01:10:48.724Z,13.83
2023-06-04T01:11:48.750Z,13.84
2023-06-04T01:12:48.778Z,13.81
2023-06-04T01:13:48.843Z,13.84
2023-06-04T01:14:48.845Z,13.79
2023-06-04T01:15:48.866Z,13.68
2023-06-04T01:16:49.039Z,13.80
2023-06-04T01:17:48.965Z,13.81
2023-06-04T01:18:48.982Z,13.79
2023-06-04T01:19:49.055Z,13.71
2023-06-04T01:20:49.028Z,13.72
2023-06-04T01:21:49.059Z,13.65
2023-06-04T01:22:49.096Z,13.63
2023-06-04T01:23:49.160Z,13.61
2023-06-04T01:24:49.157Z,13.53
2023-06-04T01:25:49.190Z,13.65
2023-06-04T01:26:49.219Z,13.53
2023-06-04T01:27:49.254Z,13.59
2023-06-04T01:28:49.295Z,13.53
2023-06-04T01:29:49.317Z,13.57
2023-06-04T01:30:49.375Z,13.59
2023-06-04T01:31:49.459Z,13.65
2023-06-04T01:32:49.437Z,13.59
2023-06-04T01:33:49.445Z,13.59
2023-06-04T01:34:49.478Z,13.62
2023-06-04T01:35:49.508Z,13.55
2023-06-04T01:36:49.552Z,13.62
2023-06-04T01:37:49.577Z,13.55
2023-06-04T01:38:49.612Z,13.59
2023-06-04T01:39:49.654Z,13.47
2023-06-04T01:40:49.679Z,13.50
2023-06-04T01:41:49.709Z,13.51
2023-06-04T01:42:49.737Z,13.50
2023-06-04T01:43:49.778Z,13.46
2023-06-04T01:44:49.812Z,13.41
2023-06-04T01:45:49.843Z,13.35
2023-06-04T01:46:49.985Z,13.32
2023-06-04T01:47:49.970Z,13.43
2023-06-04T01:48:49.940Z,13.32
2023-06-04T01:49:49.964Z,13.31
2023-06-04T01:50:49.982Z,13.32
2023-06-04T01:51:50.028Z,13.31
2023-06-04T01:52:50.050Z,13.29
2023-06-04T01:53:50.083Z,13.25
2023-06-04T01:54:50.181Z,13.22
2023-06-04T01:55:50.209Z,13.31
2023-06-04T01:56:50.190Z,13.31
2023-06-04T01:57:50.218Z,13.29
2023-06-04T01:58:50.248Z,13.25
2023-06-04T01:59:50.276Z,13.13
2023-06-04T02:00:50.311Z,13.21
2023-06-04T02:01:50.389Z,13.25
2023-06-04T02:02:50.421Z,13.28
2023-06-04T02:03:50.423Z,13.29
2023-06-04T02:04:50.431Z,13.16
2023-06-04T02:05:50.464Z,13.29
2023-06-04T02:06:50.495Z,13.27
2023-06-04T02:07:50.536Z,13.27
2023-06-04T02:08:50.573Z,13.29
2023-06-04T02:09:50.649Z,13.27
2023-06-04T02:10:50.634Z,13.27
2023-06-04T02:11:50.657Z,13.19
2023-06-04T02:12:50.687Z,13.21
2023-06-04T02:13:50.721Z,13.28
2023-06-04T02:14:50.755Z,13.24
2023-06-04T02:15:50.788Z,13.35
2023-06-04T02:16:50.904Z,13.21
2023-06-04T02:17:50.946Z,13.16
2023-06-04T02:18:50.883Z,13.14
2023-06-04T02:19:50.969Z,13.12
2023-06-04T02:20:50.947Z,13.04
2023-06-04T02:21:50.974Z,13.12
2023-06-04T02:22:51.019Z,13.13
2023-06-04T02:23:51.078Z,13.13
2023-06-04T02:24:51.076Z,13.10
2023-06-04T02:25:51.326Z,13.10
2023-06-04T02:26:51.143Z,13.06
2023-06-04T02:27:51.182Z,12.98
2023-06-04T02:28:51.210Z,12.98
2023-06-04T02:29:51.240Z,12.95
2023-06-04T02:30:51.281Z,12.98
2023-06-04T02:31:51.347Z,12.89
2023-06-04T02:32:52.722Z,12.96
2023-06-04T02:33:51.356Z,12.94
2023-06-04T02:34:51.395Z,12.91
2023-06-04T02:35:51.424Z,12.96
2023-06-04T02:36:51.459Z,12.96
2023-06-04T02:37:51.493Z,12.98
2023-06-04T02:38:51.521Z,13.03
2023-06-04T02:39:51.583Z,12.92
2023-06-04T02:40:51.597Z,12.94
2023-06-04T02:41:51.614Z,12.87
2023-06-04T02:42:51.647Z,12.85
2023-06-04T02:43:51.677Z,12.88
2023-06-04T02:44:51.714Z,12.89
2023-06-04T02:45:51.837Z,12.92
2023-06-04T02:46:51.775Z,12.84
2023-06-04T02:47:51.888Z,12.84
2023-06-04T02:48:51.834Z,12.74
2023-06-04T02:49:51.872Z,12.92
2023-06-04T02:50:51.897Z,12.79
2023-06-04T02:51:51.926Z,12.89
2023-06-04T02:52:51.960Z,12.89
2023-06-04T02:53:52.004Z,12.81
2023-06-04T02:54:52.033Z,12.89
2023-06-04T02:55:52.054Z,12.88
2023-06-04T02:56:52.093Z,12.88
2023-06-04T02:57:52.136Z,12.81
2023-06-04T02:58:52.150Z,12.89
2023-06-04T02:59:52.182Z,12.79
2023-06-04T03:00:52.214Z,12.89
2023-06-04T03:01:52.283Z,12.85
2023-06-04T03:02:52.321Z,12.91
2023-06-04T03:03:52.367Z,12.85
2023-06-04T03:04:52.357Z,12.84
2023-06-04T03:05:52.368Z,12.80
2023-06-04T03:06:52.403Z,12.85
2023-06-04T03:07:52.435Z,12.74
2023-06-04T03:08:52.475Z,12.89
2023-06-04T03:09:52.494Z,12.89
2023-06-04T03:10:52.529Z,12.88
2023-06-04T03:11:55.014Z,12.79
2023-06-04T03:12:52.596Z,12.89
2023-06-04T03:13:52.629Z,12.73
2023-06-04T03:14:52.660Z,12.85
2023-06-04T03:15:52.717Z,12.77
2023-06-04T03:16:52.718Z,12.80
2023-06-04T03:17:52.772Z,12.85
2023-06-04T03:18:52.795Z,12.80
2023-06-04T03:19:52.814Z,12.76
2023-06-04T03:20:52.846Z,12.91
2023-06-04T03:21:52.875Z,12.79
2023-06-04T03:22:52.920Z,12.81
2023-06-04T03:23:52.980Z,12.81
2023-06-04T03:24:52.977Z,12.74
2023-06-04T03:25:53.002Z,12.77
2023-06-04T03:26:53.047Z,12.88
2023-06-04T03:27:53.088Z,12.77
2023-06-04T03:28:53.101Z,12.73
2023-06-04T03:29:53.130Z,12.76
2023-06-04T03:30:53.176Z,12.74
2023-06-04T03:31:53.193Z,12.76
2023-06-04T03:32:53.264Z,12.71
2023-06-04T03:33:53.270Z,12.73
2023-06-04T03:34:53.289Z,12.79
2023-06-04T03:35:53.320Z,12.76
2023-06-04T03:36:53.353Z,12.76
2023-06-04T03:37:53.387Z,12.79
2023-06-04T03:38:53.433Z,12.84
2023-06-04T03:39:53.446Z,12.77
2023-06-04T03:40:53.476Z,12.74
2023-06-04T03:41:53.513Z,12.77
2023-06-04T03:42:53.586Z,12.85
2023-06-04T03:43:53.574Z,12.84
2023-06-04T03:44:53.603Z,12.76
2023-06-04T03:45:53.637Z,12.89
2023-06-04T03:46:53.737Z,12.89
2023-06-04T03:47:53.806Z,12.81
2023-06-04T03:48:53.734Z,12.85
2023-06-04T03:49:53.761Z,12.74
2023-06-04T03:50:53.818Z,12.85
2023-06-04T03:51:53.837Z,12.85
2023-06-04T03:52:53.856Z,12.91
2023-06-04T03:53:53.889Z,12.84
2023-06-04T03:54:53.924Z,12.94
2023-06-04T03:55:53.954Z,12.94
2023-06-04T03:56:53.981Z,12.92
2023-06-04T03:57:54.016Z,12.81
2023-06-04T03:58:54.055Z,12.95
2023-06-04T03:59:54.077Z,12.95
2023-06-04T04:00:54.113Z,12.99
2023-06-04T04:01:54.181Z,13.03
2023-06-04T04:02:54.213Z,13.07
2023-06-04T04:03:54.398Z,13.07
2023-06-04T04:04:54.248Z,12.99
2023-06-04T04:05:54.270Z,13.09
2023-06-04T04:06:54.315Z,13.06
2023-06-04T04:07:54.339Z,12.98
2023-06-04T04:08:54.363Z,12.95
2023-06-04T04:09:54.399Z,13.03
2023-06-04T04:10:54.430Z,12.92
2023-06-04T04:11:54.457Z,12.88
2023-06-04T04:12:54.530Z,12.91
2023-06-04T04:13:54.524Z,12.94
2023-06-04T04:14:54.557Z,12.98
2023-06-04T04:15:54.585Z,13.09
2023-06-04T04:16:54.647Z,13.01
2023-06-04T04:17:54.692Z,13.09
2023-06-04T04:18:54.684Z,13.01
2023-06-04T04:19:54.717Z,13.03
2023-06-04T04:20:54.749Z,13.04
2023-06-04T04:21:54.778Z,13.12
2023-06-04T04:22:54.813Z,13.07
2023-06-04T04:23:54.901Z,13.14
2023-06-04T04:24:54.876Z,13.04
2023-06-04T04:25:54.900Z,13.04
2023-06-04T04:26:54.936Z,13.10
2023-06-04T04:27:54.964Z,13.09
2023-06-04T04:28:54.998Z,13.12
2023-06-04T04:29:55.028Z,13.12
2023-06-04T04:30:55.103Z,13.17
2023-06-04T04:31:55.092Z,13.16
2023-06-04T04:32:55.198Z,13.14
2023-06-04T04:33:55.153Z,13.27
2023-06-04T04:34:55.183Z,13.24
2023-06-04T04:35:55.216Z,13.36
2023-06-04T04:36:55.268Z,13.29
2023-06-04T04:37:55.312Z,13.38
2023-06-04T04:38:55.908Z,13.35
2023-06-04T04:39:55.350Z,13.46
2023-06-04T04:40:55.376Z,13.32
2023-06-04T04:41:55.408Z,13.38
2023-06-04T04:42:55.442Z,13.36
2023-06-04T04:43:55.472Z,13.43
2023-06-04T04:44:55.504Z,13.35
2023-06-04T04:45:55.589Z,13.38
2023-06-04T04:46:55.569Z,13.46
2023-06-04T04:47:55.650Z,13.36
2023-06-04T04:48:55.630Z,13.38
2023-06-04T04:49:55.660Z,13.48
2023-06-04T04:50:55.707Z,13.46
2023-06-04T04:51:55.725Z,13.39
2023-06-04T04:52:55.759Z,13.39
2023-06-04T04:53:55.857Z,13.61
2023-06-04T04:54:55.823Z,13.55
2023-06-04T04:55:55.850Z,13.62
2023-06-04T04:57:12.147Z,13.68
2023-06-04T04:57:55.916Z,13.65
2023-06-04T04:58:55.953Z,13.68
2023-06-04T04:59:55.984Z,13.68
2023-06-04T05:00:56.011Z,13.73
2023-06-04T05:01:56.079Z,13.86
2023-06-04T05:02:56.113Z,13.80
2023-06-04T05:03:56.158Z,13.80
2023-06-04T05:04:56.140Z,13.79
2023-06-04T05:05:56.182Z,13.84
2023-06-04T05:06:56.201Z,13.83
2023-06-04T05:07:56.234Z,13.79
2023-06-04T05:08:56.264Z,13.83
2023-06-04T05:09:56.301Z,13.91
2023-06-04T05:10:56.342Z,13.91
2023-06-04T05:11:56.396Z,13.90
2023-06-04T05:12:56.417Z,14.02
2023-06-04T05:13:56.428Z,14.04
2023-06-04T05:14:56.457Z,14.13
2023-06-04T05:15:56.558Z,14.04
2023-06-04T05:16:56.528Z,14.26
2023-06-04T05:17:56.609Z,14.13
2023-06-04T05:18:56.584Z,14.19
2023-06-04T05:19:56.618Z,14.23
2023-06-04T05:20:56.656Z,14.29
2023-06-04T05:21:56.681Z,14.23
2023-06-04T05:22:56.725Z,14.23
2023-06-04T05:23:56.779Z,14.30
2023-06-04T05:24:56.778Z,14.38
2023-06-04T05:25:56.809Z,14.35
2023-06-04T05:26:56.840Z,14.44
2023-06-04T05:27:56.872Z,14.46
2023-06-04T05:28:59.099Z,14.45
2023-06-04T05:29:56.944Z,14.41
2023-06-04T05:30:56.968Z,14.49
2023-06-04T05:31:57.048Z,14.54
2023-06-04T05:32:57.060Z,14.61
2023-06-04T05:33:57.077Z,14.59
2023-06-04T05:34:57.098Z,14.66
2023-06-04T05:35:57.134Z,14.78
2023-06-04T05:36:57.165Z,14.74
2023-06-04T05:37:57.197Z,14.74
2023-06-04T05:38:57.234Z,14.82
2023-06-04T05:39:57.279Z,14.85
2023-06-04T05:40:57.300Z,14.91
2023-06-04T05:41:57.326Z,14.94
2023-06-04T05:42:57.360Z,14.94
2023-06-04T05:43:57.401Z,15.05
2023-06-04T05:44:57.426Z,15.03
2023-06-04T05:45:57.480Z,15.01
2023-06-04T05:46:57.490Z,15.09
2023-06-04T05:47:57.565Z,15.15
2023-06-04T05:48:57.553Z,15.19
2023-06-04T05:49:57.604Z,15.20
2023-06-04T05:50:57.627Z,15.23
2023-06-04T05:51:57.683Z,15.27
2023-06-04T05:52:57.692Z,15.40
2023-06-04T05:53:57.719Z,15.41
2023-06-04T05:54:57.750Z,15.49
2023-06-04T05:55:57.790Z,15.46
2023-06-04T05:56:57.825Z,15.52
2023-06-04T05:57:57.852Z,15.58
2023-06-04T05:58:57.889Z,15.55
2023-06-04T05:59:57.921Z,15.60
2023-06-04T06:00:57.952Z,15.67
2023-06-04T06:01:58.000Z,15.73
2023-06-04T06:02:58.094Z,15.77
2023-06-04T06:03:58.111Z,15.85
2023-06-04T06:04:58.081Z,15.88
2023-06-04T06:05:58.130Z,15.96
2023-06-04T06:06:58.149Z,16.04
2023-06-04T06:07:58.190Z,16.03
2023-06-04T06:08:58.207Z,16.06
2023-06-04T06:09:58.241Z,16.17
2023-06-04T06:10:58.284Z,16.11
2023-06-04T06:11:58.310Z,16.10
2023-06-04T06:12:58.344Z,16.23
2023-06-04T06:13:58.379Z,16.17
2023-06-04T06:14:58.416Z,16.18
2023-06-04T06:15:58.522Z,16.29
2023-06-04T06:16:58.475Z,16.26
2023-06-04T06:17:58.584Z,16.25
2023-06-04T06:18:58.542Z,16.32
2023-06-04T06:19:58.573Z,16.36
2023-06-04T06:20:58.606Z,16.40
2023-06-04T06:21:58.645Z,16.42
2023-06-04T06:22:58.681Z,16.34
2023-06-04T06:23:58.747Z,16.44
2023-06-04T06:24:58.740Z,16.57
2023-06-04T06:25:58.785Z,16.55
2023-06-04T06:26:58.820Z,16.65
2023-06-04T06:27:58.843Z,16.77
2023-06-04T06:28:58.876Z,16.80
2023-06-04T06:29:58.910Z,16.85
2023-06-04T06:30:58.959Z,16.90
2023-06-04T06:31:58.976Z,16.99
2023-06-04T06:32:59.031Z,17.12
2023-06-04T06:33:59.056Z,17.12
2023-06-04T06:34:59.078Z,17.24
2023-06-04T06:35:59.111Z,17.33
2023-06-04T06:36:59.143Z,17.20
2023-06-04T06:37:59.186Z,17.18
2023-06-04T06:38:59.219Z,17.35
2023-06-04T06:39:59.245Z,17.42
2023-06-04T06:40:59.282Z,17.36
2023-06-04T06:41:59.321Z,17.40
2023-06-04T06:42:59.350Z,17.53
2023-06-04T06:43:59.381Z,17.57
2023-06-04T06:44:59.423Z,17.58
2023-06-04T06:45:59.478Z,17.62
2023-06-04T06:46:59.558Z,17.68
2023-06-04T06:47:59.561Z,17.71
2023-06-04T06:48:59.555Z,17.84
2023-06-04T06:49:59.595Z,17.77
2023-06-04T06:50:59.621Z,17.87
2023-06-04T06:51:59.652Z,17.95
2023-06-04T06:52:59.688Z,17.86
2023-06-04T06:53:59.728Z,17.92
2023-06-04T06:54:59.766Z,17.89
2023-06-04T06:55:59.794Z,17.91
2023-06-04T06:56:59.824Z,17.96
2023-06-04T06:57:59.906Z,17.95
2023-06-04T06:58:59.899Z,17.84
2023-06-04T06:59:59.923Z,17.92
2023-06-04T07:01:00.003Z,17.92
2023-06-04T07:02:00.028Z,17.92
2023-06-04T07:03:00.072Z,18.04
2023-06-04T07:04:00.094Z,18.10
2023-06-04T07:05:00.163Z,18.13
2023-06-04T07:06:00.154Z,18.09
2023-06-04T07:07:00.165Z,18.14
2023-06-04T07:08:00.201Z,18.25
2023-06-04T07:09:00.230Z,18.34
2023-06-04T07:10:00.266Z,18.32
2023-06-04T07:11:00.295Z,18.32
2023-06-04T07:12:00.343Z,18.29
2023-06-04T07:13:00.369Z,18.41
2023-06-04T07:14:00.402Z,18.50
2023-06-04T07:15:00.434Z,18.53
2023-06-04T07:16:00.486Z,18.57
2023-06-04T07:17:00.560Z,18.60
2023-06-04T07:18:00.562Z,18.62
2023-06-04T07:19:00.572Z,18.74
2023-06-04T07:20:00.626Z,18.75
2023-06-04T07:21:00.642Z,18.84
2023-06-04T07:22:00.686Z,18.78
2023-06-04T07:23:00.715Z,18.66
2023-06-04T07:24:00.812Z,18.71
2023-06-04T07:25:00.795Z,18.79
2023-06-04T07:26:00.819Z,18.84
2023-06-04T07:27:00.852Z,18.90
2023-06-04T07:28:00.890Z,18.91
2023-06-04T07:29:00.921Z,19.09
2023-06-04T07:30:00.961Z,19.13
2023-06-04T07:31:00.991Z,19.30
2023-06-04T07:32:01.097Z,19.31
2023-06-04T07:33:01.099Z,19.43
2023-06-04T07:34:01.101Z,19.47
2023-06-04T07:35:01.123Z,19.49
2023-06-04T07:36:01.158Z,19.61
2023-06-04T07:37:01.202Z,19.70
2023-06-04T07:38:01.228Z,19.68
2023-06-04T07:39:01.308Z,19.78
2023-06-04T07:40:01.311Z,19.78
2023-06-04T07:41:01.337Z,19.94
2023-06-04T07:42:01.373Z,19.92
2023-06-04T07:43:01.421Z,20.02
2023-06-04T07:44:01.446Z,20.10
2023-06-04T07:45:01.476Z,20.19
2023-06-04T07:46:01.559Z,20.22
2023-06-04T07:47:01.548Z,20.27
2023-06-04T07:48:01.657Z,20.40
2023-06-04T07:49:01.620Z,20.44
2023-06-04T07:50:03.573Z,20.56
2023-06-04T07:51:01.696Z,20.61
2023-06-04T07:52:01.725Z,20.72
2023-06-04T07:53:01.771Z,20.75
2023-06-04T07:54:01.796Z,20.85
2023-06-04T07:55:01.859Z,20.81
2023-06-04T07:56:01.868Z,20.88
2023-06-04T07:57:01.900Z,20.96
2023-06-04T07:58:03.155Z,20.98
2023-06-04T07:59:01.989Z,20.97
2023-06-04T08:00:02.011Z,20.87
2023-06-04T08:01:02.048Z,20.91
2023-06-04T08:02:02.089Z,20.97
2023-06-04T08:03:02.301Z,21.01
2023-06-04T08:04:02.283Z,20.98
2023-06-04T08:05:02.221Z,20.93
2023-06-04T08:06:04.388Z,20.97
2023-06-04T08:07:02.258Z,20.97
2023-06-04T08:08:02.294Z,21.05
2023-06-04T08:09:02.331Z,21.08
2023-06-04T08:10:02.377Z,21.09
2023-06-04T08:11:02.402Z,21.16
2023-06-04T08:12:02.458Z,21.34
2023-06-04T08:13:02.478Z,21.42
2023-06-04T08:14:02.506Z,21.48
2023-06-04T08:15:02.545Z,21.55
2023-06-04T08:16:02.592Z,21.66
2023-06-04T08:17:02.620Z,21.67
2023-06-04T08:18:02.773Z,21.79
2023-06-04T08:19:02.693Z,21.82
2023-06-04T08:20:02.734Z,21.86
2023-06-04T08:21:02.765Z,21.93
2023-06-04T08:22:02.796Z,22.02
2023-06-04T08:23:02.848Z,22.04
2023-06-04T08:24:02.989Z,22.17
2023-06-04T08:25:02.905Z,22.26
2023-06-04T08:26:02.960Z,22.30
2023-06-04T08:27:02.989Z,22.31
2023-06-04T08:28:03.013Z,22.30
2023-06-04T08:29:03.061Z,22.39
2023-06-04T08:30:03.093Z,22.52
2023-06-04T08:31:03.125Z,22.51
2023-06-04T08:32:03.212Z,22.60
2023-06-04T08:33:03.215Z,22.63
2023-06-04T08:34:03.233Z,22.72
2023-06-04T08:35:03.272Z,22.59
2023-06-04T08:36:03.361Z,22.66
2023-06-04T08:37:03.349Z,22.69
2023-06-04T08:38:03.382Z,22.64
2023-06-04T08:39:03.422Z,22.70
2023-06-04T08:40:03.451Z,22.89
2023-06-04T08:41:03.502Z,22.89
2023-06-04T08:42:03.528Z,22.79
2023-06-04T08:43:03.563Z,22.69
2023-06-04T08:44:03.603Z,22.56
2023-06-04T08:45:03.641Z,22.41
2023-06-04T08:46:03.690Z,22.45
2023-06-04T08:47:03.715Z,22.48
2023-06-04T08:48:03.827Z,22.54
2023-06-04T08:49:03.798Z,22.41
2023-06-04T08:50:03.823Z,22.39
2023-06-04T08:51:03.951Z,22.36
2023-06-04T08:52:03.909Z,22.39
2023-06-04T08:53:03.941Z,22.51
2023-06-04T08:54:03.976Z,22.60
2023-06-04T08:55:04.026Z,22.69
2023-06-04T08:56:04.044Z,22.86
2023-06-04T08:57:04.095Z,23.00
2023-06-04T08:58:04.123Z,23.01
2023-06-04T08:59:04.166Z,23.15
2023-06-04T09:00:04.189Z,23.34
2023-06-04T09:01:04.322Z,23.39
2023-06-04T09:02:04.266Z,23.49
2023-06-04T09:03:04.386Z,23.62
2023-06-04T09:04:04.479Z,23.64
2023-06-04T09:05:04.380Z,23.62
2023-06-04T09:06:04.418Z,23.67
2023-06-04T09:07:04.474Z,23.71
2023-06-04T09:08:04.528Z,23.87
2023-06-04T09:09:04.563Z,23.82
2023-06-04T09:10:13.246Z,23.82
2023-06-04T09:11:04.670Z,24.06
2023-06-04T09:12:04.636Z,23.94
2023-06-04T09:13:04.674Z,24.02
2023-06-04T09:14:04.715Z,24.06
2023-06-04T09:15:04.747Z,24.12
2023-06-04T09:16:04.837Z,24.11
2023-06-04T09:17:04.824Z,24.08
2023-06-04T09:18:04.909Z,24.23
2023-06-04T09:19:04.904Z,24.31
2023-06-04T09:20:04.941Z,24.33
2023-06-04T09:21:05.074Z,24.46
2023-06-04T09:22:05.012Z,24.42
2023-06-04T09:23:05.049Z,24.51
2023-06-04T09:24:05.140Z,24.60
2023-06-04T09:25:05.126Z,24.66
2023-06-04T09:26:05.159Z,24.66
2023-06-04T09:27:05.216Z,24.71
2023-06-04T09:28:05.233Z,24.77
2023-06-04T09:29:05.294Z,24.77
2023-06-04T09:30:05.309Z,24.74
2023-06-04T09:31:05.572Z,24.80
2023-06-04T09:32:05.390Z,24.82
2023-06-04T09:33:05.456Z,24.84
2023-06-04T09:34:05.465Z,24.97
2023-06-04T09:35:05.509Z,25.05
2023-06-04T09:36:07.602Z,25.16
2023-06-04T09:37:05.580Z,25.26
2023-06-04T09:38:05.661Z,25.29
2023-06-04T09:39:05.663Z,25.35
2023-06-04T09:40:05.690Z,25.41
2023-06-04T09:41:05.974Z,25.46
2023-06-04T09:42:05.773Z,25.53
2023-06-04T09:43:05.805Z,25.54
2023-06-04T09:44:05.844Z,25.46
2023-06-04T09:45:05.891Z,25.31
2023-06-04T09:46:05.928Z,25.36
2023-06-04T09:47:05.955Z,25.23
2023-06-04T09:48:09.120Z,25.23
2023-06-04T09:49:06.067Z,25.34
2023-06-04T09:50:06.075Z,25.36
2023-06-04T09:51:06.242Z,25.41
2023-06-04T09:52:06.151Z,25.54
2023-06-04T09:53:06.189Z,25.23
2023-06-04T09:54:06.222Z,25.31
2023-06-04T09:55:06.262Z,25.01
2023-06-04T09:56:06.300Z,24.56
2023-06-04T09:57:06.341Z,24.49
2023-06-04T09:58:06.392Z,24.55
2023-06-04T09:59:06.412Z,24.33
2023-06-04T10:00:06.464Z,24.15
2023-06-04T10:01:06.943Z,24.24
2023-06-04T10:02:06.613Z,24.21
2023-06-04T10:03:06.626Z,24.29
2023-06-04T10:04:06.669Z,24.49
2023-06-04T10:05:06.641Z,24.75
2023-06-04T10:06:06.678Z,24.89
2023-06-04T10:07:06.718Z,24.33
2023-06-04T10:08:06.849Z,24.29
2023-06-04T10:09:06.797Z,24.36
2023-06-04T10:10:06.834Z,24.61
2023-06-04T10:11:07.085Z,24.75
2023-06-04T10:12:06.908Z,24.90
2023-06-04T10:13:06.956Z,25.01
2023-06-04T10:14:06.985Z,25.09
2023-06-04T10:15:07.035Z,25.24
2023-06-04T10:16:08.320Z,24.97
2023-06-04T10:17:07.134Z,24.89
2023-06-04T10:18:07.212Z,24.75
2023-06-04T10:19:07.177Z,24.86
2023-06-04T10:20:07.212Z,25.02
2023-06-04T10:21:07.395Z,25.20
2023-06-04T10:22:07.297Z,25.41
2023-06-04T10:23:07.325Z,25.51
2023-06-04T10:24:07.495Z,25.56
2023-06-04T10:25:07.407Z,25.74
2023-06-04T10:26:07.444Z,25.85
2023-06-04T10:27:07.481Z,25.86
2023-06-04T10:28:07.540Z,25.91
2023-06-04T10:29:07.570Z,26.01
2023-06-04T10:30:07.604Z,26.08
2023-06-04T10:31:07.743Z,26.19
2023-06-04T10:32:07.749Z,26.19
2023-06-04T10:33:07.761Z,26.16
2023-06-04T10:34:07.772Z,26.20
2023-06-04T10:35:07.915Z,26.23
2023-06-04T10:36:07.828Z,26.28
2023-06-04T10:37:07.871Z,26.42
2023-06-04T10:38:07.906Z,26.42
2023-06-04T10:39:07.943Z,26.47
2023-06-04T10:40:07.993Z,26.41
2023-06-04T10:41:08.170Z,26.47
2023-06-04T10:42:08.065Z,26.49
2023-06-04T10:43:08.107Z,26.47
2023-06-04T10:44:08.137Z,26.50
2023-06-04T10:45:08.176Z,26.54
2023-06-04T10:46:08.255Z,26.53
2023-06-04T10:47:08.253Z,26.60
2023-06-04T10:48:08.359Z,26.61
2023-06-04T10:49:08.334Z,26.60
2023-06-04T10:50:08.375Z,26.68
2023-06-04T10:51:08.540Z,26.83
2023-06-04T10:52:08.458Z,26.88
2023-06-04T10:53:08.487Z,26.88
2023-06-04T10:54:08.522Z,26.98
2023-06-04T10:55:08.570Z,27.01
2023-06-04T10:56:08.604Z,26.97
2023-06-04T10:57:08.654Z,26.94
2023-06-04T10:58:08.679Z,26.96
2023-06-04T10:59:08.719Z,27.09
2023-06-04T11:00:08.766Z,27.16
2023-06-04T11:01:09.054Z,27.16
2023-06-04T11:02:08.845Z,27.16
2023-06-04T11:03:10.004Z,27.23
2023-06-04T11:04:08.959Z,27.16
2023-06-04T11:05:08.957Z,27.20
2023-06-04T11:06:08.990Z,27.20
2023-06-04T11:07:09.030Z,27.05
2023-06-04T11:08:09.071Z,26.69
2023-06-04T11:09:09.136Z,26.16
2023-06-04T11:10:09.149Z,26.24
2023-06-04T11:11:09.256Z,26.13
2023-06-04T11:12:09.222Z,26.32
2023-06-04T11:13:09.273Z,26.49
2023-06-04T11:14:09.298Z,26.75
2023-06-04T11:15:09.341Z,26.84
2023-06-04T11:16:09.457Z,26.83
2023-06-04T11:17:09.422Z,26.93
2023-06-04T11:18:09.510Z,26.84
2023-06-04T11:19:09.497Z,26.90
2023-06-04T11:20:09.534Z,26.91
2023-06-04T11:21:09.755Z,26.94
2023-06-04T11:22:09.611Z,26.97
2023-06-04T11:23:09.655Z,27.01
2023-06-04T11:24:09.730Z,26.94
2023-06-04T11:25:09.731Z,27.06
2023-06-04T11:26:09.768Z,27.20
2023-06-04T11:27:15.261Z,27.18
2023-06-04T11:28:09.844Z,27.16
2023-06-04T11:29:09.914Z,27.23
2023-06-04T11:30:09.926Z,27.34
2023-06-04T11:31:10.368Z,27.34
2023-06-04T11:32:10.004Z,27.43
2023-06-04T11:33:10.120Z,27.43
2023-06-04T11:34:10.084Z,27.39
2023-06-04T11:35:10.127Z,27.42
2023-06-04T11:36:10.161Z,27.52
2023-06-04T11:37:10.226Z,27.50
2023-06-04T11:38:10.548Z,27.52
2023-06-04T11:39:10.283Z,27.59
2023-06-04T11:40:10.316Z,27.52
2023-06-04T11:41:10.403Z,27.48
2023-06-04T11:42:10.406Z,27.52
2023-06-04T11:43:10.436Z,27.52
2023-06-04T11:44:11.334Z,27.50
2023-06-04T11:45:10.516Z,27.46
2023-06-04T11:46:11.298Z,27.53
2023-06-04T11:47:10.594Z,27.55
2023-06-04T11:48:10.745Z,27.69
2023-06-04T11:49:10.713Z,27.69
2023-06-04T11:50:10.758Z,27.78
2023-06-04T11:51:10.751Z,27.80
2023-06-04T11:52:10.793Z,27.81
2023-06-04T11:53:10.831Z,27.93
2023-06-04T11:54:10.871Z,27.90
2023-06-04T11:55:10.911Z,27.95
2023-06-04T11:56:10.948Z,27.98
2023-06-04T11:57:10.991Z,27.99
2023-06-04T11:58:11.032Z,28.06
2023-06-04T11:59:11.077Z,28.08
2023-06-04T12:00:11.106Z,28.08
2023-06-04T12:01:11.147Z,28.02
2023-06-04T12:02:11.219Z,28.02
2023-06-04T12:03:11.396Z,27.99
2023-06-04T12:04:11.267Z,27.99
2023-06-04T12:05:11.308Z,27.98
2023-06-04T12:06:11.386Z,27.99
2023-06-04T12:07:11.388Z,27.93
2023-06-04T12:08:11.431Z,27.90
2023-06-04T12:09:11.468Z,27.87
2023-06-04T12:10:11.511Z,27.81
2023-06-04T12:11:11.544Z,27.81
2023-06-04T12:12:11.591Z,27.72
2023-06-04T12:13:11.652Z,27.72
2023-06-04T12:14:11.708Z,27.76
2023-06-04T12:15:11.841Z,27.83
2023-06-04T12:16:11.753Z,27.81
2023-06-04T12:17:11.870Z,27.88
2023-06-04T12:18:11.906Z,27.90
2023-06-04T12:19:11.868Z,27.88
2023-06-04T12:20:11.914Z,27.83
2023-06-04T12:21:11.951Z,27.66
2023-06-04T12:22:11.981Z,27.34
2023-06-04T12:23:12.020Z,27.33
2023-06-04T12:24:12.084Z,27.40
2023-06-04T12:25:12.107Z,27.58
2023-06-04T12:26:12.152Z,27.63
2023-06-04T12:27:12.196Z,27.78
2023-06-04T12:28:12.221Z,27.80
2023-06-04T12:29:12.269Z,27.86
2023-06-04T12:30:12.372Z,27.81
2023-06-04T12:31:12.382Z,27.80
2023-06-04T12:32:12.915Z,27.88
2023-06-04T12:33:12.422Z,27.42
2023-06-04T12:34:12.467Z,26.83
2023-06-04T12:35:12.500Z,26.65
2023-06-04T12:36:12.544Z,26.42
2023-06-04T12:37:12.582Z,26.38
2023-06-04T12:38:12.624Z,26.54
2023-06-04T12:39:12.672Z,26.60
2023-06-04T12:40:12.707Z,26.83
2023-06-04T12:41:12.738Z,26.97
2023-06-04T12:42:12.778Z,27.01
2023-06-04T12:43:12.819Z,27.18
2023-06-04T12:44:12.860Z,27.30
2023-06-04T12:45:12.897Z,27.39
2023-06-04T12:46:12.952Z,27.52
2023-06-04T12:47:13.018Z,27.46
2023-06-04T12:48:13.101Z,27.34
2023-06-04T12:49:13.108Z,27.34
2023-06-04T12:50:13.107Z,27.05
2023-06-04T12:51:13.140Z,26.96
2023-06-04T12:52:13.174Z,26.98
2023-06-04T12:53:13.214Z,27.05